Minneapolis, Minnesota
Current Conditions -  °F | °C
As of 3:53 PM on Monday 20 Oct 2014 (Local Time) from KMSP Reporting Station
Clear Clear  
Wind Chill: 63°   Ceiling: Unl
Heat Index: 63°   Visibility: 10mi
Dew Point: 42°   Wind: 8mph
Humidity: 46%   Direction: 310°NW
Pressure: 29.98"   Gusts: NA
Location:  44.98°N, 93.26°W
Report Text: KMSP 202053Z 31007KT 10SM CLR 17/06 A2998 RMK AO2 SLP152 T01720056 55003
Loading
Personal Weather Stations






























Interactive Weather Map New forecast layout! Learn more

10-Day Weather Forecast

Advertisements
Track Severe Weather on mobile